Time,TemperatureF,DewpointF,PressureIn,WindDirection,WindDirectionDegrees,WindSpeedMPH,WindSpeedGustMPH,Humidity,HourlyPrecipIn,Conditions,Clouds,dailyrainin,SoftwareType,DateUTC
2013-04-05 06:37:00,54.3,52.6,30.12,SW,219,0.0,0.0,94,0.00,,,0.00,WeatherTracker,2013-04-05 13:37:00,
2013-04-05 06:42:00,54.2,52.8,30.12,SW,218,0.0,0.0,95,0.01,,,0.01,WeatherTracker,2013-04-05 13:42:00,
2013-04-05 06:47:00,54.3,52.9,30.12,SW,218,0.0,0.0,95,0.01,,,0.01,WeatherTracker,2013-04-05 13:47:00,
2013-04-05 06:52:00,54.3,52.9,30.12,SW,218,0.0,0.0,95,0.01,,,0.01,WeatherTracker,2013-04-05 13:52:00,
2013-04-05 06:57:00,54.4,53.0,30.12,WSW,239,0.0,0.0,95,0.01,,,0.01,WeatherTracker,2013-04-05 13:57:00,
2013-04-05 07:02:00,54.3,52.9,30.12,SW,234,0.0,0.0,95,0.01,,,0.01,WeatherTracker,2013-04-05 14:02:00,
2013-04-05 07:07:00,54.5,53.1,30.12,South,174,0.0,0.0,95,0.01,,,0.01,WeatherTracker,2013-04-05 14:07:00,
2013-04-05 07:12:00,54.5,52.8,30.12,WSW,250,2.0,0.0,94,0.01,,,0.01,WeatherTracker,2013-04-05 14:12:00,
2013-04-05 07:17:00,54.4,52.7,30.12,SW,214,1.0,0.0,94,0.01,,,0.01,WeatherTracker,2013-04-05 14:17:00,
2013-04-05 07:22:00,54.4,52.7,30.12,SSW,203,0.0,0.0,94,0.01,,,0.01,WeatherTracker,2013-04-05 14:22:00,
2013-04-05 07:27:00,54.5,53.1,30.13,SW,217,0.0,0.0,95,0.01,,,0.01,WeatherTracker,2013-04-05 14:27:00,
2013-04-05 07:32:00,54.6,53.2,30.13,SW,217,0.0,0.0,95,0.01,,,0.01,WeatherTracker,2013-04-05 14:32:00,
2013-04-05 07:37:00,54.6,53.2,30.13,South,190,0.0,0.0,95,0.00,,,0.01,WeatherTracker,2013-04-05 14:37:00,
2013-04-05 07:42:00,54.7,53.3,30.13,South,191,0.0,0.0,95,0.00,,,0.01,WeatherTracker,2013-04-05 14:42:00,
2013-04-05 07:47:00,54.8,53.1,30.13,South,190,0.0,0.0,94,0.00,,,0.01,WeatherTracker,2013-04-05 14:47:00,
2013-04-05 07:52:00,54.9,53.5,30.13,SSW,192,0.0,0.0,95,0.00,,,0.01,WeatherTracker,2013-04-05 14:52:00,
2013-04-05 07:57:00,55.0,53.3,30.14,SW,231,1.0,0.0,94,0.00,,,0.01,WeatherTracker,2013-04-05 14:57:00,
2013-04-05 08:02:00,55.1,53.7,30.14,SW,235,0.0,0.0,95,0.00,,,0.01,WeatherTracker,2013-04-05 15:02:00,
2013-04-05 08:07:00,55.3,53.6,30.14,SW,234,0.0,0.0,94,0.00,,,0.01,WeatherTracker,2013-04-05 15:07:00,
2013-04-05 08:12:00,55.7,54.0,30.14,WNW,286,1.0,0.0,94,0.00,,,0.01,WeatherTracker,2013-04-05 15:12:00,
2013-04-05 08:17:00,55.8,54.1,30.14,SSW,210,3.0,0.0,94,0.00,,,0.01,WeatherTracker,2013-04-05 15:17:00,
2013-04-05 08:22:00,55.9,53.9,30.14,SW,229,1.0,0.0,93,0.00,,,0.01,WeatherTracker,2013-04-05 15:22:00,
2013-04-05 08:27:00,56.1,53.8,30.14,West,259,1.0,0.0,92,0.00,,,0.01,WeatherTracker,2013-04-05 15:27:00,
2013-04-05 08:32:00,56.5,54.2,30.15,WNW,287,2.0,0.0,92,0.00,,,0.01,WeatherTracker,2013-04-05 15:32:00,
2013-04-05 08:38:00,56.3,53.7,30.15,West,269,3.0,0.0,91,0.00,,,0.01,WeatherTracker,2013-04-05 15:38:00,
2013-04-05 08:43:00,56.4,53.5,30.14,WSW,238,0.0,0.0,90,0.00,,,0.01,WeatherTracker,2013-04-05 15:43:00,
2013-04-05 08:48:00,56.6,53.7,30.14,SW,218,2.0,0.0,90,0.00,,,0.01,WeatherTracker,2013-04-05 15:48:00,